sensor_id;sensor_type;location;lat;lon;timestamp;P1;durP1;ratioP1;P2;durP2;ratioP2
69280;SDS011;56392;51.082;17.080;2022-08-04T00:02:50;12.73;;;6.00;;
69280;SDS011;56392;51.082;17.080;2022-08-04T00:08:02;11.00;;;6.00;;
69280;SDS011;56392;51.082;17.080;2022-08-04T00:13:09;11.45;;;6.50;;
69280;SDS011;56392;51.082;17.080;2022-08-04T00:18:13;9.75;;;5.63;;
69280;SDS011;56392;51.082;17.080;2022-08-04T00:23:17;9.80;;;6.33;;
69280;SDS011;56392;51.082;17.080;2022-08-04T00:28:21;9.38;;;6.13;;
69280;SDS011;56392;51.082;17.080;2022-08-04T00:33:25;9.70;;;6.47;;
69280;SDS011;56392;51.082;17.080;2022-08-04T00:38:28;11.93;;;6.70;;
69280;SDS011;56392;51.082;17.080;2022-08-04T00:43:33;10.15;;;6.50;;
69280;SDS011;56392;51.082;17.080;2022-08-04T00:48:44;13.80;;;6.80;;
69280;SDS011;56392;51.082;17.080;2022-08-04T00:54:00;10.47;;;6.43;;
69280;SDS011;56392;51.082;17.080;2022-08-04T00:59:11;10.83;;;6.73;;
69280;SDS011;56392;51.082;17.080;2022-08-04T01:04:20;12.50;;;6.57;;
69280;SDS011;56392;51.082;17.080;2022-08-04T01:09:34;10.18;;;6.53;;
69280;SDS011;56392;51.082;17.080;2022-08-04T01:14:54;11.23;;;6.67;;
69280;SDS011;56392;51.082;17.080;2022-08-04T01:20:06;12.10;;;7.07;;
69280;SDS011;56392;51.082;17.080;2022-08-04T01:25:31;11.52;;;6.70;;
69280;SDS011;56392;51.082;17.080;2022-08-04T01:30:51;11.30;;;7.10;;
69280;SDS011;56392;51.082;17.080;2022-08-04T01:35:59;11.43;;;7.40;;
69280;SDS011;56392;51.082;17.080;2022-08-04T01:41:06;10.27;;;6.95;;
69280;SDS011;56392;51.082;17.080;2022-08-04T01:46:11;11.17;;;7.27;;
69280;SDS011;56392;51.082;17.080;2022-08-04T01:51:15;11.63;;;7.30;;
69280;SDS011;56392;51.082;17.080;2022-08-04T01:56:20;12.05;;;7.57;;
69280;SDS011;56392;51.082;17.080;2022-08-04T02:01:26;11.52;;;7.60;;
69280;SDS011;56392;51.082;17.080;2022-08-04T02:06:30;12.37;;;7.57;;
69280;SDS011;56392;51.082;17.080;2022-08-04T02:11:39;13.02;;;7.55;;
69280;SDS011;56392;51.082;17.080;2022-08-04T02:16:48;11.98;;;7.72;;
69280;SDS011;56392;51.082;17.080;2022-08-04T02:21:55;11.70;;;8.07;;
69280;SDS011;56392;51.082;17.080;2022-08-04T02:27:00;11.55;;;8.00;;
69280;SDS011;56392;51.082;17.080;2022-08-04T02:32:06;11.82;;;7.60;;
69280;SDS011;56392;51.082;17.080;2022-08-04T02:37:21;12.37;;;8.07;;
69280;SDS011;56392;51.082;17.080;2022-08-04T02:42:26;13.87;;;8.30;;
69280;SDS011;56392;51.082;17.080;2022-08-04T02:47:31;12.88;;;8.20;;
69280;SDS011;56392;51.082;17.080;2022-08-04T02:52:35;13.38;;;8.10;;
69280;SDS011;56392;51.082;17.080;2022-08-04T02:57:40;13.03;;;7.73;;
69280;SDS011;56392;51.082;17.080;2022-08-04T03:02:52;15.20;;;8.38;;
69280;SDS011;56392;51.082;17.080;2022-08-04T03:08:14;15.52;;;8.40;;
69280;SDS011;56392;51.082;17.080;2022-08-04T03:13:46;13.80;;;8.50;;
69280;SDS011;56392;51.082;17.080;2022-08-04T03:19:24;13.65;;;8.10;;
69280;SDS011;56392;51.082;17.080;2022-08-04T03:24:43;13.85;;;8.68;;
69280;SDS011;56392;51.082;17.080;2022-08-04T03:30:06;14.33;;;8.60;;
69280;SDS011;56392;51.082;17.080;2022-08-04T03:35:20;15.60;;;8.73;;
69280;SDS011;56392;51.082;17.080;2022-08-04T03:40:54;14.45;;;8.63;;
69280;SDS011;56392;51.082;17.080;2022-08-04T03:46:42;14.50;;;9.10;;
69280;SDS011;56392;51.082;17.080;2022-08-04T03:51:59;14.00;;;8.77;;
69280;SDS011;56392;51.082;17.080;2022-08-04T04:08:49;15.77;;;10.00;;
69280;SDS011;56392;51.082;17.080;2022-08-04T04:14:08;15.70;;;8.57;;
69280;SDS011;56392;51.082;17.080;2022-08-04T04:19:26;14.48;;;9.18;;
69280;SDS011;56392;51.082;17.080;2022-08-04T04:24:47;12.63;;;9.30;;
69280;SDS011;56392;51.082;17.080;2022-08-04T04:30:00;15.33;;;9.17;;
69280;SDS011;56392;51.082;17.080;2022-08-04T04:35:09;13.05;;;8.90;;
69280;SDS011;56392;51.082;17.080;2022-08-04T04:40:24;16.15;;;8.85;;
69280;SDS011;56392;51.082;17.080;2022-08-04T04:45:39;14.90;;;10.07;;
69280;SDS011;56392;51.082;17.080;2022-08-04T04:50:51;17.20;;;9.88;;
69280;SDS011;56392;51.082;17.080;2022-08-04T04:56:10;15.38;;;9.98;;
69280;SDS011;56392;51.082;17.080;2022-08-04T05:06:45;15.80;;;9.52;;
69280;SDS011;56392;51.082;17.080;2022-08-04T05:12:08;15.50;;;10.23;;
69280;SDS011;56392;51.082;17.080;2022-08-04T05:17:33;15.00;;;9.40;;
69280;SDS011;56392;51.082;17.080;2022-08-04T05:22:38;19.07;;;9.80;;
69280;SDS011;56392;51.082;17.080;2022-08-04T05:27:48;15.35;;;9.63;;
69280;SDS011;56392;51.082;17.080;2022-08-04T05:32:57;14.43;;;9.15;;
69280;SDS011;56392;51.082;17.080;2022-08-04T05:38:03;17.90;;;9.23;;
69280;SDS011;56392;51.082;17.080;2022-08-04T05:43:10;15.73;;;8.32;;
69280;SDS011;56392;51.082;17.080;2022-08-04T05:48:14;14.98;;;8.45;;
69280;SDS011;56392;51.082;17.080;2022-08-04T05:53:18;12.70;;;8.23;;
69280;SDS011;56392;51.082;17.080;2022-08-04T05:58:23;12.90;;;7.80;;
69280;SDS011;56392;51.082;17.080;2022-08-04T06:03:28;12.98;;;7.88;;
69280;SDS011;56392;51.082;17.080;2022-08-04T06:08:31;15.33;;;7.70;;
69280;SDS011;56392;51.082;17.080;2022-08-04T06:13:38;11.60;;;7.33;;
69280;SDS011;56392;51.082;17.080;2022-08-04T06:18:44;12.13;;;7.30;;
69280;SDS011;56392;51.082;17.080;2022-08-04T06:23:50;12.50;;;7.55;;
69280;SDS011;56392;51.082;17.080;2022-08-04T06:28:57;12.37;;;6.53;;
69280;SDS011;56392;51.082;17.080;2022-08-04T06:34:01;13.90;;;6.93;;
69280;SDS011;56392;51.082;17.080;2022-08-04T06:39:04;13.00;;;6.70;;
69280;SDS011;56392;51.082;17.080;2022-08-04T06:44:10;12.23;;;7.37;;
69280;SDS011;56392;51.082;17.080;2022-08-04T06:49:16;12.95;;;6.75;;
69280;SDS011;56392;51.082;17.080;2022-08-04T06:54:19;12.32;;;6.82;;
69280;SDS011;56392;51.082;17.080;2022-08-04T06:59:23;14.18;;;7.15;;
69280;SDS011;56392;51.082;17.080;2022-08-04T07:04:27;11.97;;;7.10;;
69280;SDS011;56392;51.082;17.080;2022-08-04T07:09:31;13.98;;;7.32;;
69280;SDS011;56392;51.082;17.080;2022-08-04T07:14:35;12.30;;;6.97;;
69280;SDS011;56392;51.082;17.080;2022-08-04T07:19:38;11.80;;;7.20;;
69280;SDS011;56392;51.082;17.080;2022-08-04T07:24:40;10.95;;;6.57;;
69280;SDS011;56392;51.082;17.080;2022-08-04T07:29:45;13.35;;;7.20;;
69280;SDS011;56392;51.082;17.080;2022-08-04T07:34:49;13.77;;;6.80;;
69280;SDS011;56392;51.082;17.080;2022-08-04T07:39:52;11.57;;;6.78;;
69280;SDS011;56392;51.082;17.080;2022-08-04T07:44:56;12.35;;;6.40;;
69280;SDS011;56392;51.082;17.080;2022-08-04T07:49:59;13.45;;;6.38;;
69280;SDS011;56392;51.082;17.080;2022-08-04T07:55:02;10.03;;;6.57;;
69280;SDS011;56392;51.082;17.080;2022-08-04T08:00:08;9.52;;;6.53;;
69280;SDS011;56392;51.082;17.080;2022-08-04T08:05:12;11.40;;;6.18;;
69280;SDS011;56392;51.082;17.080;2022-08-04T08:10:16;10.63;;;6.57;;
69280;SDS011;56392;51.082;17.080;2022-08-04T08:15:22;12.32;;;6.20;;
69280;SDS011;56392;51.082;17.080;2022-08-04T08:20:25;10.75;;;6.30;;
69280;SDS011;56392;51.082;17.080;2022-08-04T08:25:29;12.00;;;7.17;;
69280;SDS011;56392;51.082;17.080;2022-08-04T08:30:34;12.57;;;6.90;;
69280;SDS011;56392;51.082;17.080;2022-08-04T08:35:44;11.95;;;6.65;;
69280;SDS011;56392;51.082;17.080;2022-08-04T08:40:52;12.50;;;6.65;;
69280;SDS011;56392;51.082;17.080;2022-08-04T08:46:19;11.27;;;6.87;;
69280;SDS011;56392;51.082;17.080;2022-08-04T08:51:38;12.35;;;7.05;;
69280;SDS011;56392;51.082;17.080;2022-08-04T08:56:50;11.05;;;7.40;;
69280;SDS011;56392;51.082;17.080;2022-08-04T09:02:09;13.07;;;6.73;;
69280;SDS011;56392;51.082;17.080;2022-08-04T09:07:46;10.82;;;6.47;;
69280;SDS011;56392;51.082;17.080;2022-08-04T09:13:03;11.00;;;6.22;;
69280;SDS011;56392;51.082;17.080;2022-08-04T09:23:51;12.70;;;6.45;;
69280;SDS011;56392;51.082;17.080;2022-08-04T09:29:06;11.77;;;6.45;;
69280;SDS011;56392;51.082;17.080;2022-08-04T09:34:16;12.38;;;6.53;;
69280;SDS011;56392;51.082;17.080;2022-08-04T09:39:28;9.50;;;6.80;;
69280;SDS011;56392;51.082;17.080;2022-08-04T09:44:42;10.88;;;5.75;;
69280;SDS011;56392;51.082;17.080;2022-08-04T09:49:56;9.98;;;6.15;;
69280;SDS011;56392;51.082;17.080;2022-08-04T09:55:04;9.47;;;6.00;;
69280;SDS011;56392;51.082;17.080;2022-08-04T10:00:13;9.63;;;5.90;;
69280;SDS011;56392;51.082;17.080;2022-08-04T10:05:20;8.52;;;6.07;;
69280;SDS011;56392;51.082;17.080;2022-08-04T10:10:30;7.93;;;5.70;;
69280;SDS011;56392;51.082;17.080;2022-08-04T10:15:39;9.75;;;5.50;;
69280;SDS011;56392;51.082;17.080;2022-08-04T10:20:47;11.50;;;5.05;;
69280;SDS011;56392;51.082;17.080;2022-08-04T10:26:02;8.13;;;4.75;;
69280;SDS011;56392;51.082;17.080;2022-08-04T10:31:18;9.93;;;5.17;;
69280;SDS011;56392;51.082;17.080;2022-08-04T10:36:29;8.85;;;5.03;;
69280;SDS011;56392;51.082;17.080;2022-08-04T10:41:41;9.00;;;5.20;;
69280;SDS011;56392;51.082;17.080;2022-08-04T10:46:53;13.73;;;4.50;;
69280;SDS011;56392;51.082;17.080;2022-08-04T10:52:02;9.23;;;4.55;;
69280;SDS011;56392;51.082;17.080;2022-08-04T10:57:10;7.88;;;4.60;;
69280;SDS011;56392;51.082;17.080;2022-08-04T11:02:19;7.60;;;4.50;;
69280;SDS011;56392;51.082;17.080;2022-08-04T11:07:32;8.30;;;4.68;;
69280;SDS011;56392;51.082;17.080;2022-08-04T11:12:39;7.18;;;4.53;;
69280;SDS011;56392;51.082;17.080;2022-08-04T11:17:46;7.85;;;4.82;;
69280;SDS011;56392;51.082;17.080;2022-08-04T11:22:58;7.27;;;4.60;;
69280;SDS011;56392;51.082;17.080;2022-08-04T11:28:08;7.78;;;4.70;;
69280;SDS011;56392;51.082;17.080;2022-08-04T11:33:19;9.15;;;4.45;;
69280;SDS011;56392;51.082;17.080;2022-08-04T11:38:30;9.43;;;4.50;;
69280;SDS011;56392;51.082;17.080;2022-08-04T11:43:41;7.55;;;4.50;;
69280;SDS011;56392;51.082;17.080;2022-08-04T11:48:47;7.07;;;4.65;;
69280;SDS011;56392;51.082;17.080;2022-08-04T11:53:57;8.70;;;4.87;;
69280;SDS011;56392;51.082;17.080;2022-08-04T11:59:01;8.63;;;4.60;;
69280;SDS011;56392;51.082;17.080;2022-08-04T12:04:09;9.52;;;4.40;;
69280;SDS011;56392;51.082;17.080;2022-08-04T12:09:21;7.18;;;4.35;;
69280;SDS011;56392;51.082;17.080;2022-08-04T12:14:37;6.63;;;4.27;;
69280;SDS011;56392;51.082;17.080;2022-08-04T12:19:44;8.73;;;4.90;;
69280;SDS011;56392;51.082;17.080;2022-08-04T12:24:53;9.15;;;4.57;;
69280;SDS011;56392;51.082;17.080;2022-08-04T12:30:02;8.53;;;4.50;;
69280;SDS011;56392;51.082;17.080;2022-08-04T12:35:08;9.35;;;4.22;;
69280;SDS011;56392;51.082;17.080;2022-08-04T12:40:18;7.57;;;4.53;;
69280;SDS011;56392;51.082;17.080;2022-08-04T12:45:24;7.73;;;4.87;;
69280;SDS011;56392;51.082;17.080;2022-08-04T12:50:28;9.00;;;4.75;;
69280;SDS011;56392;51.082;17.080;2022-08-04T12:55:36;10.35;;;4.88;;
69280;SDS011;56392;51.082;17.080;2022-08-04T13:00:47;7.40;;;4.90;;
69280;SDS011;56392;51.082;17.080;2022-08-04T13:05:55;8.00;;;4.70;;
69280;SDS011;56392;51.082;17.080;2022-08-04T13:10:59;7.63;;;4.55;;
69280;SDS011;56392;51.082;17.080;2022-08-04T13:16:03;8.90;;;4.40;;
69280;SDS011;56392;51.082;17.080;2022-08-04T13:21:11;9.53;;;4.50;;
69280;SDS011;56392;51.082;17.080;2022-08-04T13:26:17;9.80;;;5.38;;
69280;SDS011;56392;51.082;17.080;2022-08-04T13:31:22;7.38;;;4.75;;
69280;SDS011;56392;51.082;17.080;2022-08-04T13:36:27;9.13;;;4.67;;
69280;SDS011;56392;51.082;17.080;2022-08-04T13:41:33;9.20;;;4.70;;
69280;SDS011;56392;51.082;17.080;2022-08-04T13:46:38;8.95;;;5.32;;
69280;SDS011;56392;51.082;17.080;2022-08-04T13:51:47;10.18;;;5.53;;
69280;SDS011;56392;51.082;17.080;2022-08-04T13:56:55;8.90;;;5.00;;
69280;SDS011;56392;51.082;17.080;2022-08-04T14:02:02;8.57;;;5.13;;
69280;SDS011;56392;51.082;17.080;2022-08-04T14:07:09;9.98;;;5.10;;
69280;SDS011;56392;51.082;17.080;2022-08-04T14:12:16;9.23;;;4.73;;
69280;SDS011;56392;51.082;17.080;2022-08-04T14:17:22;7.75;;;4.72;;
69280;SDS011;56392;51.082;17.080;2022-08-04T14:22:27;8.52;;;4.80;;
69280;SDS011;56392;51.082;17.080;2022-08-04T14:27:40;8.27;;;4.70;;
69280;SDS011;56392;51.082;17.080;2022-08-04T14:32:52;8.10;;;4.45;;
69280;SDS011;56392;51.082;17.080;2022-08-04T14:37:56;8.25;;;5.20;;
69280;SDS011;56392;51.082;17.080;2022-08-04T14:43:02;9.35;;;5.40;;
69280;SDS011;56392;51.082;17.080;2022-08-04T14:48:06;9.27;;;5.10;;
69280;SDS011;56392;51.082;17.080;2022-08-04T14:53:10;8.95;;;5.53;;
69280;SDS011;56392;51.082;17.080;2022-08-04T14:58:18;9.55;;;5.45;;
69280;SDS011;56392;51.082;17.080;2022-08-04T15:03:21;9.57;;;5.67;;
69280;SDS011;56392;51.082;17.080;2022-08-04T15:08:24;11.15;;;6.20;;
69280;SDS011;56392;51.082;17.080;2022-08-04T15:13:29;11.48;;;6.20;;
69280;SDS011;56392;51.082;17.080;2022-08-04T15:18:33;10.37;;;6.00;;
69280;SDS011;56392;51.082;17.080;2022-08-04T15:23:36;10.07;;;6.03;;
69280;SDS011;56392;51.082;17.080;2022-08-04T15:28:43;10.00;;;5.80;;
69280;SDS011;56392;51.082;17.080;2022-08-04T15:33:50;9.18;;;5.95;;
69280;SDS011;56392;51.082;17.080;2022-08-04T15:38:55;8.67;;;5.90;;
69280;SDS011;56392;51.082;17.080;2022-08-04T15:44:15;8.75;;;5.70;;
69280;SDS011;56392;51.082;17.080;2022-08-04T15:49:31;9.23;;;6.25;;
69280;SDS011;56392;51.082;17.080;2022-08-04T15:54:34;10.83;;;6.20;;
69280;SDS011;56392;51.082;17.080;2022-08-04T15:59:58;9.55;;;6.40;;
69280;SDS011;56392;51.082;17.080;2022-08-04T16:10:34;10.37;;;6.23;;
69280;SDS011;56392;51.082;17.080;2022-08-04T16:15:42;11.15;;;5.78;;
69280;SDS011;56392;51.082;17.080;2022-08-04T16:20:48;9.75;;;5.68;;
69280;SDS011;56392;51.082;17.080;2022-08-04T16:25:52;12.25;;;6.43;;
69280;SDS011;56392;51.082;17.080;2022-08-04T16:30:59;9.57;;;5.73;;
69280;SDS011;56392;51.082;17.080;2022-08-04T16:36:05;10.65;;;5.95;;
69280;SDS011;56392;51.082;17.080;2022-08-04T16:41:08;11.63;;;5.68;;
69280;SDS011;56392;51.082;17.080;2022-08-04T16:46:12;10.67;;;5.87;;
69280;SDS011;56392;51.082;17.080;2022-08-04T16:51:41;10.00;;;5.80;;
69280;SDS011;56392;51.082;17.080;2022-08-04T16:56:43;12.07;;;5.68;;
69280;SDS011;56392;51.082;17.080;2022-08-04T17:01:49;11.70;;;5.63;;
69280;SDS011;56392;51.082;17.080;2022-08-04T17:06:57;23.58;;;5.95;;
69280;SDS011;56392;51.082;17.080;2022-08-04T17:12:00;11.85;;;5.97;;
69280;SDS011;56392;51.082;17.080;2022-08-04T17:17:04;9.75;;;5.50;;
69280;SDS011;56392;51.082;17.080;2022-08-04T17:22:07;11.67;;;5.47;;
69280;SDS011;56392;51.082;17.080;2022-08-04T17:27:10;9.55;;;6.45;;
69280;SDS011;56392;51.082;17.080;2022-08-04T17:32:14;9.57;;;5.90;;
69280;SDS011;56392;51.082;17.080;2022-08-04T17:37:19;10.97;;;5.70;;
69280;SDS011;56392;51.082;17.080;2022-08-04T17:42:27;11.02;;;6.10;;
69280;SDS011;56392;51.082;17.080;2022-08-04T17:47:31;8.98;;;6.00;;
69280;SDS011;56392;51.082;17.080;2022-08-04T17:52:34;10.73;;;6.60;;
69280;SDS011;56392;51.082;17.080;2022-08-04T17:57:37;10.38;;;5.80;;
69280;SDS011;56392;51.082;17.080;2022-08-04T18:02:51;9.63;;;5.93;;
69280;SDS011;56392;51.082;17.080;2022-08-04T18:07:54;10.20;;;5.80;;
69280;SDS011;56392;51.082;17.080;2022-08-04T18:12:56;10.30;;;5.83;;
69280;SDS011;56392;51.082;17.080;2022-08-04T18:18:15;11.05;;;6.25;;
69280;SDS011;56392;51.082;17.080;2022-08-04T18:23:19;9.82;;;5.95;;
69280;SDS011;56392;51.082;17.080;2022-08-04T18:28:22;9.30;;;5.63;;
69280;SDS011;56392;51.082;17.080;2022-08-04T18:33:26;9.48;;;5.97;;
69280;SDS011;56392;51.082;17.080;2022-08-04T18:38:28;11.95;;;5.95;;
69280;SDS011;56392;51.082;17.080;2022-08-04T18:43:31;10.43;;;6.20;;
69280;SDS011;56392;51.082;17.080;2022-08-04T18:48:35;12.18;;;6.50;;
69280;SDS011;56392;51.082;17.080;2022-08-04T18:53:37;9.80;;;6.43;;
69280;SDS011;56392;51.082;17.080;2022-08-04T18:58:40;10.57;;;6.35;;
69280;SDS011;56392;51.082;17.080;2022-08-04T19:03:44;9.93;;;6.20;;
69280;SDS011;56392;51.082;17.080;2022-08-04T19:08:47;10.27;;;6.13;;
69280;SDS011;56392;51.082;17.080;2022-08-04T19:13:53;10.85;;;6.47;;
69280;SDS011;56392;51.082;17.080;2022-08-04T19:18:57;9.80;;;6.30;;
69280;SDS011;56392;51.082;17.080;2022-08-04T19:24:00;13.90;;;7.13;;
69280;SDS011;56392;51.082;17.080;2022-08-04T19:29:03;13.70;;;6.50;;
69280;SDS011;56392;51.082;17.080;2022-08-04T19:34:08;10.70;;;6.50;;
69280;SDS011;56392;51.082;17.080;2022-08-04T19:39:11;13.50;;;7.07;;
69280;SDS011;56392;51.082;17.080;2022-08-04T19:44:14;11.57;;;7.18;;
69280;SDS011;56392;51.082;17.080;2022-08-04T19:49:18;10.27;;;7.38;;
69280;SDS011;56392;51.082;17.080;2022-08-04T19:54:22;13.23;;;7.33;;
69280;SDS011;56392;51.082;17.080;2022-08-04T19:59:25;11.55;;;6.85;;
69280;SDS011;56392;51.082;17.080;2022-08-04T20:04:29;10.73;;;6.65;;
69280;SDS011;56392;51.082;17.080;2022-08-04T20:09:31;11.13;;;6.63;;
69280;SDS011;56392;51.082;17.080;2022-08-04T20:14:34;11.55;;;6.80;;
69280;SDS011;56392;51.082;17.080;2022-08-04T20:19:40;10.52;;;7.15;;
69280;SDS011;56392;51.082;17.080;2022-08-04T20:24:44;12.10;;;6.83;;
69280;SDS011;56392;51.082;17.080;2022-08-04T20:29:47;10.40;;;6.72;;
69280;SDS011;56392;51.082;17.080;2022-08-04T20:34:53;12.13;;;6.68;;
69280;SDS011;56392;51.082;17.080;2022-08-04T20:39:57;14.15;;;6.85;;
69280;SDS011;56392;51.082;17.080;2022-08-04T20:45:02;10.17;;;6.97;;
69280;SDS011;56392;51.082;17.080;2022-08-04T20:50:07;12.48;;;6.55;;
69280;SDS011;56392;51.082;17.080;2022-08-04T20:55:10;13.73;;;7.18;;
69280;SDS011;56392;51.082;17.080;2022-08-04T21:00:13;9.57;;;6.63;;
69280;SDS011;56392;51.082;17.080;2022-08-04T21:05:17;11.15;;;6.50;;
69280;SDS011;56392;51.082;17.080;2022-08-04T21:10:20;12.40;;;6.85;;
69280;SDS011;56392;51.082;17.080;2022-08-04T21:15:23;11.60;;;7.20;;
69280;SDS011;56392;51.082;17.080;2022-08-04T21:20:28;11.18;;;6.53;;
69280;SDS011;56392;51.082;17.080;2022-08-04T21:25:31;11.35;;;6.50;;
69280;SDS011;56392;51.082;17.080;2022-08-04T21:30:33;13.63;;;6.68;;
69280;SDS011;56392;51.082;17.080;2022-08-04T21:35:38;14.03;;;6.37;;
69280;SDS011;56392;51.082;17.080;2022-08-04T21:40:40;12.00;;;6.57;;
69280;SDS011;56392;51.082;17.080;2022-08-04T21:45:43;12.63;;;6.10;;
69280;SDS011;56392;51.082;17.080;2022-08-04T21:50:46;11.03;;;5.93;;
69280;SDS011;56392;51.082;17.080;2022-08-04T21:55:49;14.20;;;6.72;;
69280;SDS011;56392;51.082;17.080;2022-08-04T22:00:52;11.13;;;6.28;;
69280;SDS011;56392;51.082;17.080;2022-08-04T22:05:56;12.53;;;6.73;;
69280;SDS011;56392;51.082;17.080;2022-08-04T22:10:58;11.68;;;6.55;;
69280;SDS011;56392;51.082;17.080;2022-08-04T22:16:01;11.93;;;6.72;;
69280;SDS011;56392;51.082;17.080;2022-08-04T22:21:06;15.45;;;7.78;;
69280;SDS011;56392;51.082;17.080;2022-08-04T22:26:12;10.50;;;6.57;;
69280;SDS011;56392;51.082;17.080;2022-08-04T22:31:15;9.65;;;6.53;;
69280;SDS011;56392;51.082;17.080;2022-08-04T22:36:20;14.32;;;6.43;;
69280;SDS011;56392;51.082;17.080;2022-08-04T22:41:23;12.47;;;6.80;;
69280;SDS011;56392;51.082;17.080;2022-08-04T22:46:26;11.18;;;6.45;;
69280;SDS011;56392;51.082;17.080;2022-08-04T22:51:31;11.05;;;6.25;;
69280;SDS011;56392;51.082;17.080;2022-08-04T22:56:33;13.27;;;7.13;;
69280;SDS011;56392;51.082;17.080;2022-08-04T23:01:36;10.40;;;6.40;;
69280;SDS011;56392;51.082;17.080;2022-08-04T23:06:40;11.90;;;6.50;;
69280;SDS011;56392;51.082;17.080;2022-08-04T23:11:43;14.43;;;6.50;;
69280;SDS011;56392;51.082;17.080;2022-08-04T23:16:45;13.17;;;6.10;;
69280;SDS011;56392;51.082;17.080;2022-08-04T23:21:49;14.02;;;6.55;;
69280;SDS011;56392;51.082;17.080;2022-08-04T23:26:52;15.20;;;5.78;;
69280;SDS011;56392;51.082;17.080;2022-08-04T23:31:54;13.03;;;6.20;;
69280;SDS011;56392;51.082;17.080;2022-08-04T23:36:59;12.52;;;6.13;;
69280;SDS011;56392;51.082;17.080;2022-08-04T23:42:02;12.95;;;5.90;;
69280;SDS011;56392;51.082;17.080;2022-08-04T23:47:08;10.53;;;6.10;;
69280;SDS011;56392;51.082;17.080;2022-08-04T23:52:15;10.45;;;6.10;;
69280;SDS011;56392;51.082;17.080;2022-08-04T23:57:18;14.45;;;6.63;;
